• Join FlightAware (Why Join?)
  • Login
  • US Flag 
03:46PM EDT


 

Airport Tracker/Info


-or-


 

Live Flight TrackerFlight Track Log ✈ UAL582 ✈ 06-Jul-2013 ✈ KLAX - KIAH

Flight Track Log - Related Links

Times and Time Zones

All times are in EDT time to prevent confusion due to time zone crossing. See the UAL582 flight status page for this flight to view local times or setup timezone preferences in your user account.

Time Position Orientation Groundspeed Altitude Reporting Facility
EDT Latitude Longitude Course Direction KTS MPH feet Rate Location/Type
12:36PM 33.9264 -118.4642 90° East 200 230 1,700  Level Los Angeles Center
12:37PM 33.8792 -118.5306 229° Southwest 241 277 4,300 2,400 Climbing Los Angeles Center
12:38PM 33.8122 -118.5561 198° South 278 320 6,700 2,400 Climbing Los Angeles Center
12:39PM 33.7369 -118.5306 164° South 284 327 9,300 2,100 Climbing Los Angeles Center
12:40PM 33.6817 -118.4658 136° Southeast 319 367 11,100 2,160 Climbing Los Angeles Center
12:41PM 33.6442 -118.3419 110° East 336 387 13,800 1,980 Climbing Los Angeles Center
12:42PM 33.6333 -118.3167 90° East  Level FlightAware Approximate
12:42PM 33.6444 -118.2264 90° East 352 405 15,300  Level Los Angeles Center
12:44PM 33.6447 -118.1017 90° East 372 428 17,100 1,860 Climbing Los Angeles Center
12:45PM 33.6450 -117.9722 90° East 384 442 19,200 1,740 Climbing Los Angeles Center
12:46PM 33.6444 -117.8408 90° East 393 452 20,800 1,500 Climbing Los Angeles Center
12:47PM 33.6444 -117.6778 90° East 405 466 22,300 1,440 Climbing Los Angeles Center
12:48PM 33.6439 -117.5383 90° East 415 478 23,800 1,200 Climbing Los Angeles Center
12:49PM 33.6431 -117.3944 90° East 427 491 24,900 1,020 Climbing Los Angeles Center
12:50PM 33.6406 -117.2494 91° East 435 501 26,000 960 Climbing Los Angeles Center
12:51PM 33.6381 -117.1011 91° East 444 511 27,000 960 Climbing Los Angeles Center
12:52PM 33.6381 -116.9172 90° East 461 531 28,100 780 Climbing Los Angeles Center
12:53PM 33.6358 -116.7836 91° East 468 539 28,700 780 Climbing Los Angeles Center
12:54PM 33.6336 -116.5928 91° East 474 545 29,800 1,020 Climbing Los Angeles Center
12:55PM 33.6314 -116.4325 91° East 478 550 30,900 1,080 Climbing Los Angeles Center
12:56PM 33.6306 -116.2736 90° East 476 548 32,100 960 Climbing Los Angeles Center
12:57PM 33.6275 -116.1464 92° East 476 548 32,900 780 Climbing Los Angeles Center
12:58PM 33.6242 -115.9567 91° East 473 544 33,800 900 Climbing Los Angeles Center
12:59PM 33.6211 -115.8008 91° East 466 536 34,800 540 Climbing Los Angeles Center
01:00PM 33.6172 -115.6128 91° East 469 540 35,000 60 Climbing Los Angeles Center
01:01PM 33.6119 -115.4556 92° East 472 543 35,000  Level Los Angeles Center
01:02PM 33.6083 -115.2986 92° East 471 542 35,000  Level Los Angeles Center
01:03PM 33.5908 -115.1453 98° East 463 533 35,000  Level Los Angeles Center
01:04PM 33.5678 -114.9936 100° East 462 532 35,000 -60 Level Los Angeles Center
01:05PM 33.5458 -114.8406 100° East 465 535 34,900 -60 Descending Los Angeles Center
01:06PM 33.5222 -114.6897 101° East 461 531 34,900  Level Los Angeles Center
01:08PM 33.4944 -114.5089 100° East 461 531 34,900  Level Los Angeles Center
01:08PM 33.4700 -114.3350 100° East 462 532 35,000  Climbing Albuquerque Center
01:10PM 33.4458 -114.1844 101° East 462 532 35,000 -60 Level Albuquerque Center
01:11PM 33.4214 -114.0339 101° East 462 532 34,900  Descending Albuquerque Center
01:12PM 33.3981 -113.8836 100° East 460 529 35,000  Climbing Albuquerque Center
01:13PM 33.3742 -113.7331 101° East 460 529 35,000 -60 Level Albuquerque Center
01:14PM 33.3489 -113.5825 101° East 461 531 34,900  Descending Albuquerque Center
01:15PM 33.3236 -113.4328 101° East 460 529 35,000  Climbing Albuquerque Center
01:16PM 33.2942 -113.2506 101° East 463 533 34,900  Descending Albuquerque Center
01:17PM 33.2689 -113.1008 101° East 461 531 35,000  Climbing Albuquerque Center
01:18PM 33.2431 -112.9494 101° East 462 532 35,000  Level Albuquerque Center
01:19PM 33.2175 -112.7986 101° East 462 532 35,000 -60 Level Albuquerque Center
01:20PM 33.1914 -112.6478 102° East 462 532 34,900  Descending Albuquerque Center
01:21PM 33.1644 -112.4939 102° East 458 527 35,000  Climbing Albuquerque Center
01:22PM 33.1361 -112.3300 102° East 459 528 35,000  Level Albuquerque Center
01:23PM 33.1122 -112.1964 102° East 463 533 35,000  Level Albuquerque Center
01:24PM 33.0861 -112.0483 102° East 461 531 35,000  Level Albuquerque Center
01:25PM 33.0550 -111.8711 102° East 459 528 35,000  Level Albuquerque Center
01:26PM 33.0292 -111.7231 102° East 458 527 35,000  Level Albuquerque Center
01:27PM 33.0017 -111.5750 102° East 460 529 35,000  Level Albuquerque Center
01:28PM 32.9758 -111.4264 102° East 462 532 35,000  Level Albuquerque Center
01:29PM 32.9492 -111.2808 102° East 454 522 35,000  Level Albuquerque Center
01:30PM 32.9228 -111.1342 102° East 454 522 35,000  Level Albuquerque Center
01:31PM 32.8892 -110.9606 103° East 450 518 35,000  Level Albuquerque Center
01:32PM 32.8614 -110.8147 103° East 452 520 35,000  Level Albuquerque Center
01:33PM 32.8336 -110.6683 103° East 455 524 35,000  Level Albuquerque Center
01:34PM 32.8072 -110.5214 102° East 457 526 35,000  Level Albuquerque Center
01:35PM 32.7781 -110.3736 103° East 459 528 35,000  Level Albuquerque Center
01:36PM 32.7494 -110.2267 103° East 459 528 35,000  Level Albuquerque Center
01:37PM 32.7167 -110.0492 102° East 459 528 35,000 -60 Level Albuquerque Center
01:38PM 32.6936 -109.9214 102° East 462 532 34,900  Descending Albuquerque Center
01:39PM 32.6619 -109.7553 103° East 455 524 35,000  Climbing Albuquerque Center
01:40PM 32.6289 -109.6006 104° East 457 526 35,000  Level Albuquerque Center
01:41PM 32.6006 -109.4542 103° East 457 526 35,000  Level Albuquerque Center
01:42PM 32.5703 -109.3103 104° East 453 521 35,000 -60 Level Albuquerque Center
01:43PM 32.5417 -109.1656 103° East 453 521 34,900 -60 Descending Albuquerque Center
01:45PM 32.5122 -109.0206 104° East 453 521 34,900  Level Albuquerque Center
01:46PM 32.4811 -108.8775 104° East 451 519 35,000  Climbing Albuquerque Center
01:47PM 32.4433 -108.7036 104° East 455 524 35,000  Level Albuquerque Center
01:48PM 32.4133 -108.5594 104° East 455 524 35,000  Level Albuquerque Center
01:49PM 32.3844 -108.4183 104° East 448 516 35,000 -60 Level Albuquerque Center
01:50PM 32.3553 -108.2753 104° East 448 516 34,900 -60 Descending Albuquerque Center
01:51PM 32.3253 -108.1333 104° East 448 516 34,900  Level Albuquerque Center
01:52PM 32.2947 -107.9900 104° East 449 517 35,000  Climbing Albuquerque Center
01:53PM 32.2642 -107.8481 104° East 449 517 35,000  Level Albuquerque Center
01:54PM 32.2283 -107.6769 104° East 450 518 35,000 -60 Level Albuquerque Center
01:55PM 32.1969 -107.5350 105° East 450 518 34,900  Descending Albuquerque Center
01:56PM 32.1658 -107.3925 104° East 452 520 35,000  Climbing Albuquerque Center
01:57PM 32.1353 -107.2489 104° East 456 525 35,000  Level Albuquerque Center
01:58PM 32.1047 -107.1064 104° East 455 524 35,000 -60 Level Albuquerque Center
01:59PM 32.0678 -106.9361 104° East 452 520 34,900 -60 Descending Albuquerque Center
02:00PM 32.0358 -106.7956 105° East 449 517 34,900  Level Albuquerque Center
02:01PM 32.0044 -106.6542 105° East 448 516 35,000  Climbing Albuquerque Center
02:02PM 31.9719 -106.5133 105° East 449 517 34,900  Descending Albuquerque Center
02:03PM 31.9408 -106.3731 105° East 446 513 35,000  Climbing Albuquerque Center
02:04PM 31.9122 -106.2278 103° East 457 526 34,900  Descending Albuquerque Center
02:05PM 31.8814 -106.0606 102° East 450 518 35,000  Climbing Albuquerque Center
02:06PM 31.8550 -105.9172 102° East 448 516 35,000 -60 Level Albuquerque Center
02:07PM 31.8294 -105.7739 102° East 448 516 34,900  Descending Albuquerque Center
02:08PM 31.8036 -105.6308 102° East 448 516 35,000  Climbing Albuquerque Center
02:09PM 31.7789 -105.4867 101° East 449 517 34,900  Descending Albuquerque Center
02:10PM 31.7514 -105.3444 103° East 446 513 35,000  Climbing Albuquerque Center
02:11PM 31.7261 -105.2017 102° East 445 512 35,000 -60 Level Albuquerque Center
02:12PM 31.7003 -105.0597 102° East 445 512 34,900  Descending Albuquerque Center
02:13PM 31.6686 -104.8864 102° East 450 518 35,000  Climbing Albuquerque Center
02:14PM 31.6422 -104.7419 102° East 451 519 35,000  Level Albuquerque Center
02:15PM 31.6156 -104.5981 102° East 451 519 35,000  Level Albuquerque Center
02:16PM 31.5886 -104.4558 103° East 447 514 35,000 -60 Level Albuquerque Center
02:17PM 31.5614 -104.3128 103° East 447 514 34,900 -60 Descending Albuquerque Center
02:18PM 31.5336 -104.1689 103° East 451 519 34,900  Level Albuquerque Center
02:19PM 31.5064 -104.0250 102° East 452 520 35,000  Climbing Albuquerque Center
02:20PM 31.4747 -103.8844 105° East 448 516 35,000  Level Albuquerque Center
02:21PM 31.4342 -103.7231 106° East 453 521 35,000  Level Albuquerque Center
02:23PM 31.3994 -103.5814 106° East 452 520 35,000  Level Albuquerque Center
02:24PM 31.3633 -103.4419 107° East 451 519 35,000  Level Albuquerque Center
02:25PM 31.3286 -103.3019 106° East 449 517 35,000  Level Albuquerque Center
02:26PM 31.2933 -103.1606 106° East 453 521 35,000 -60 Level Albuquerque Center
02:27PM 31.2511 -102.9931 106° East 451 519 34,900  Descending Albuquerque Center
02:28PM 31.2158 -102.8536 106° East 450 518 35,000  Climbing Albuquerque Center
02:29PM 31.1803 -102.7128 106° East 453 521 35,000 -60 Level Albuquerque Center
02:30PM 31.1450 -102.5736 106° East 452 520 34,900  Descending Albuquerque Center
02:31PM 31.1089 -102.4253 106° East 461 531 35,000  Climbing Albuquerque Center
02:32PM 31.0733 -102.2964 108° East 454 522 34,900  Descending Houston Center
02:33PM 31.0386 -102.1567 106° East 456 525 35,000  Climbing Houston Center
02:34PM 31.0036 -102.0186 106° East 451 519 35,000 -60 Level Houston Center
02:35PM 30.9558 -101.8844 113° Southeast 451 519 34,900  Descending Houston Center
02:36PM 30.8969 -101.7247 113° Southeast 448 516 35,000  Climbing Houston Center
02:37PM 30.8500 -101.5944 113° Southeast 448 516 34,900 -60 Descending Houston Center
02:38PM 30.8006 -101.4619 113° Southeast 447 514 34,900  Level Houston Center
02:39PM 30.7511 -101.3292 113° Southeast 448 516 34,900  Level Houston Center
02:40PM 30.7019 -101.1956 113° Southeast 449 517 35,000  Climbing Houston Center
02:41PM 30.6522 -101.0631 114° Southeast 449 517 35,000  Level Houston Center
02:42PM 30.6028 -100.9292 113° Southeast 450 518 35,000 -60 Level Houston Center
02:43PM 30.5422 -100.7697 114° Southeast 450 518 34,900  Descending Houston Center
02:44PM 30.4939 -100.6358 113° Southeast 450 518 35,000  Climbing Houston Center
02:45PM 30.4428 -100.5031 114° Southeast 450 518 34,900  Descending Houston Center
02:46PM 30.3917 -100.3686 114° Southeast 452 520 35,000  Climbing Houston Center
02:47PM 30.3408 -100.2350 114° Southeast 449 517 35,000  Level Houston Center
02:48PM 30.2903 -100.1003 113° Southeast 449 517 35,000  Level Houston Center
02:49PM 30.2381 -99.9678 114° Southeast 448 516 35,000 -60 Level Houston Center
02:50PM 30.1867 -99.8364 114° Southeast 446 513 34,900 -60 Descending Houston Center
02:51PM 30.1356 -99.7058 114° Southeast 445 512 34,900  Level Houston Center
02:52PM 30.0844 -99.5753 114° Southeast 445 512 35,000  Climbing Houston Center
02:53PM 30.0242 -99.4197 114° Southeast 444 511 35,000 -60 Level Houston Center
02:54PM 29.9756 -99.2914 114° Southeast 438 504 34,900 -60 Descending Houston Center
02:55PM 29.9242 -99.1622 115° Southeast 443 510 34,900  Level Houston Center
02:56PM 29.8683 -99.0247 115° Southeast 440 506 35,000  Climbing Houston Center
02:57PM 29.8175 -98.8967 115° Southeast 440 506 35,000  Level Houston Center
02:58PM 29.7631 -98.7589 114° Southeast 440 506 35,000  Level Houston Center
02:59PM 29.7128 -98.6331 115° Southeast 433 498 35,000  Level Houston Center
03:00PM 29.6683 -98.5058 112° Southeast 428 493 35,000  Level Houston Center
03:01PM 29.6481 -98.3558 99° East 437 503 35,000  Level Houston Center
03:02PM 29.6483 -98.2222 90° East 418 481 35,000  Level Houston Center
03:04PM 29.6494 -98.0892 89° East 417 480 35,000  Level Houston Center
03:05PM 29.6414 -97.9436 94° East 425 489 35,000 -60 Level Houston Center
03:06PM 29.6358 -97.8253 93° East 420 483 34,900 -540 Descending Houston Center
03:07PM 29.6292 -97.6908 93° East 422 486 34,000 -1,500 Descending Houston Center
03:08PM 29.6231 -97.5542 93° East 426 490 31,900 -2,100 Descending Houston Center
03:09PM 29.6158 -97.4189 93° East 424 488 29,700 -2,460 Descending Houston Center
03:10PM 29.6078 -97.2581 93° East 421 484 26,900 -2,400 Descending Houston Center
03:11PM 29.6006 -97.1244 94° East 417 480 24,800 -2,160 Descending Houston Center
03:12PM 29.5933 -96.9889 93° East 421 484 22,500 -2,280 Descending Houston Center
03:13PM 29.5853 -96.8475 94° East 434 499 20,200 -2,280 Descending Houston Center
03:14PM 29.5778 -96.7100 94° East 431 496 17,900 -2,340 Descending Houston Center
03:15PM 29.5700 -96.5825 94° East 402 463 15,500 -2,280 Descending Houston Center
03:16PM 29.5628 -96.4583 94° East 391 450 13,300 -2,160 Descending Houston Center
03:17PM 29.5558 -96.3400 94° East 375 432 11,100 -1,620 Descending Houston Center
03:18PM 29.5619 -96.2272 86° East 347 399 10,000 -540 Descending Houston Center
03:19PM 29.5694 -96.1225 85° East 330 380 10,000  Level Houston Center
03:20PM 29.6089 -96.0269 65° Northeast 331 381 10,000  Level Houston Center
03:21PM 29.6819 -95.9383 46° Northeast 333 383 10,000 -720 Level Houston Center
03:22PM 29.7572 -95.8975 25° Northeast 293 337 8,700 -1,500 Descending Houston Center
03:23PM 29.8183 -95.8281 45° Northeast 282 325 7,000 -1,380 Descending Houston Center
03:24PM 29.8586 -95.7606 55° Northeast 275 316 5,900 -1,560 Descending Houston Center
03:25PM 29.9006 -95.6883 56° Northeast 270 311 4,000 -1,380 Descending Houston Center
03:26PM 29.9461 -95.6131 55° Northeast 244 281 3,000 -480 Descending Houston Center
03:27PM 29.9828 -95.5533 55° Northeast 222 255 3,000  Level Houston Center